Athelstane, Wisconsin
Current Conditions -  °F | °C
As of 6:54 AM on Friday 19 Dec 2014 (Local Time) from KIMT Reporting Station
Clear Clear  
Wind Chill:   Ceiling: Unl
Heat Index:   Visibility: 10mi
Dew Point:   Wind: 3mph
Humidity: 84%   Direction: 310°NW
Pressure: 30.26"   Gusts: NA
Location:  45.42°N, 88.1°W
Report Text: KIMT 191254Z AUTO 31003KT 10SM CLR M14/M16 A3026 RMK AO2 SLP275 T11391161
Loading
Personal Weather Stations






























Interactive Weather Map New forecast layout! Learn more

10-Day Weather Forecast

Advertisements
Track Severe Weather on mobile